Time;durP1;ratioP1;P1;durP2;ratioP2;P2;SDS_P1;SDS_P2;PMS_P1;PMS_P2;Temp;Humidity;BMP_temperature;BMP_pressure;BME280_temperature;BME280_humidity;BME280_pressure;Samples;Min_cycle;Max_cycle;Signal;HPM_P1;HPM_P2
2021/10/02 00:36:02;;;;;;;2.23;1.90;;;14.10;99.90;;;;;;5041243;28;20445;-38
2021/10/02 00:46:30;;;;;;;2.70;1.80;;;14.10;99.90;;;;;;5034378;28;20424;-38
2021/10/02 00:48:57;;;;;;;3.03;2.07;;;14.00;99.90;;;;;;5045189;28;20542;-38
2021/10/02 00:51:22;;;;;;;2.10;1.90;;;14.00;99.90;;;;;;5033413;28;20485;-40
2021/10/02 00:53:48;;;;;;;2.00;1.90;;;14.10;99.90;;;;;;5025683;28;20429;-39
2021/10/02 00:56:14;;;;;;;2.60;2.03;;;14.10;99.90;;;;;;5038251;28;20629;-38
2021/10/02 00:58:45;;;;;;;3.00;2.00;;;14.10;99.90;;;;;;5046394;28;20216;-39
2021/10/02 01:01:15;;;;;;;2.00;1.80;;;14.10;99.90;;;;;;5038189;28;20300;-38
2021/10/02 01:04:17;;;;;;;2.70;2.40;;;14.00;99.90;;;;;;5032279;28;20474;-38
2021/10/02 01:07:14;;;;;;;3.10;1.80;;;14.00;99.90;;;;;;5032264;28;20447;-38
2021/10/02 01:09:40;;;;;;;1.80;1.70;;;14.00;99.90;;;;;;5022170;28;20475;-38
2021/10/02 01:12:05;;;;;;;2.97;1.83;;;14.10;99.90;;;;;;5031564;28;20448;-38
2021/10/02 01:14:50;;;;;;;2.10;1.90;;;14.10;99.90;;;;;;5042590;28;20285;-38
2021/10/02 01:17:30;;;;;;;3.07;2.00;;;14.00;99.90;;;;;;5044948;28;20221;-37
2021/10/02 01:20:04;;;;;;;1.77;1.67;;;14.00;99.90;;;;;;5042568;28;20468;-38
2021/10/02 01:22:59;;;;;;;3.43;1.80;;;14.00;99.90;;;;;;5013341;28;20536;-37
2021/10/02 01:26:00;;;;;;;2.80;1.90;;;14.00;99.90;;;;;;5024147;28;20495;-38
2021/10/02 01:28:28;;;;;;;1.97;1.83;;;14.00;99.90;;;;;;5026102;28;20429;-38
2021/10/02 01:31:04;;;;;;;2.67;2.47;;;14.10;99.90;;;;;;5026033;28;20492;-38
2021/10/02 01:33:48;;;;;;;2.47;1.97;;;14.10;99.90;;;;;;5025585;28;20428;-37
2021/10/02 01:37:13;;;;;;;2.40;2.20;;;14.10;99.90;;;;;;5022158;28;20531;-38
2021/10/02 01:47:58;;;;;;;2.67;2.47;;;14.10;99.90;;;;;;5025138;28;20841;-38
2021/10/02 01:50:32;;;;;;;2.50;2.30;;;14.10;99.90;;;;;;5025870;28;20457;-38
2021/10/02 01:53:00;;;;;;;2.60;2.27;;;14.10;99.90;;;;;;5015053;28;20516;-38
2021/10/02 01:55:29;;;;;;;2.90;2.70;;;14.10;99.90;;;;;;5025432;28;20451;-38
2021/10/02 01:58:06;;;;;;;3.13;2.40;;;14.10;99.90;;;;;;5025765;28;20979;-38
2021/10/02 02:00:36;;;;;;;2.60;2.40;;;14.10;99.90;;;;;;5025580;28;20845;-37
2021/10/02 02:03:04;;;;;;;2.63;2.40;;;14.10;99.90;;;;;;5025202;28;20429;-38
2021/10/02 02:05:32;;;;;;;3.27;2.87;;;14.10;99.90;;;;;;5025791;28;20503;-38
2021/10/02 02:08:02;;;;;;;3.50;2.47;;;14.10;99.90;;;;;;5020675;28;20440;-38
2021/10/02 02:10:28;;;;;;;2.50;2.23;;;14.10;99.90;;;;;;5025396;28;20741;-38
2021/10/02 02:12:58;;;;;;;2.33;2.23;;;14.10;99.90;;;;;;5024850;28;20425;-40
2021/10/02 02:15:27;;;;;;;2.47;2.27;;;14.10;99.90;;;;;;5025840;28;20417;-38
2021/10/02 02:18:00;;;;;;;2.63;2.40;;;14.10;99.90;;;;;;5025515;28;20914;-38
2021/10/02 02:20:33;;;;;;;3.30;3.00;;;14.10;99.90;;;;;;5033060;28;20497;-38
2021/10/02 02:23:00;;;;;;;2.63;2.43;;;14.10;99.90;;;;;;5020319;28;20475;-38
2021/10/02 02:25:27;;;;;;;3.13;2.90;;;14.10;99.90;;;;;;5024853;28;20433;-38
2021/10/02 02:27:54;;;;;;;3.00;2.70;;;14.10;99.90;;;;;;5025554;28;20421;-38
2021/10/02 02:30:21;;;;;;;2.80;2.60;;;14.10;99.90;;;;;;5025661;28;20425;-38
2021/10/02 02:32:47;;;;;;;2.80;2.60;;;14.10;99.90;;;;;;5024775;28;20474;-40
2021/10/02 02:35:14;;;;;;;3.17;2.87;;;14.10;99.90;;;;;;5025287;28;20920;-38
2021/10/02 02:37:40;;;;;;;3.40;3.10;;;14.10;99.90;;;;;;5015738;28;20474;-39
2021/10/02 02:40:06;;;;;;;4.60;2.70;;;14.10;99.90;;;;;;5025470;28;20783;-37
2021/10/02 02:42:32;;;;;;;2.90;2.70;;;14.10;99.90;;;;;;5024810;28;20462;-39
2021/10/02 02:44:58;;;;;;;5.10;3.40;;;14.10;99.90;;;;;;5024898;28;20449;-38
2021/10/02 02:47:28;;;;;;;3.50;3.30;;;14.00;99.90;;;;;;5024147;28;20927;-39
2021/10/02 02:50:06;;;;;;;3.63;3.33;;;14.00;99.90;;;;;;5025494;28;20451;-38
2021/10/02 02:52:51;;;;;;;3.47;3.17;;;14.00;99.90;;;;;;5017091;28;20739;-38
2021/10/02 02:55:23;;;;;;;3.93;3.63;;;14.00;99.90;;;;;;5022373;28;20421;-39
2021/10/02 02:57:54;;;;;;;5.40;3.70;;;13.90;99.90;;;;;;5025384;28;20469;-38
2021/10/02 03:00:21;;;;;;;3.93;3.70;;;14.00;99.90;;;;;;5024993;28;20841;-38
2021/10/02 03:02:56;;;;;;;4.33;4.03;;;14.00;99.90;;;;;;5024232;28;20604;-43
2021/10/02 03:05:24;;;;;;;4.57;4.20;;;14.00;99.90;;;;;;5027117;28;20443;-38
2021/10/02 03:08:04;;;;;;;4.87;4.00;;;14.00;99.90;;;;;;5018403;28;20441;-38
2021/10/02 03:10:31;;;;;;;4.90;4.50;;;14.00;99.90;;;;;;5027262;28;20432;-38
2021/10/02 03:13:03;;;;;;;5.17;4.67;;;14.00;99.90;;;;;;5027912;28;20815;-39
2021/10/02 03:15:30;;;;;;;5.80;5.30;;;14.00;99.90;;;;;;5027938;28;20429;-40
2021/10/02 03:17:57;;;;;;;5.20;4.63;;;14.00;99.90;;;;;;5028570;28;20460;-38
2021/10/02 03:20:24;;;;;;;4.67;4.37;;;14.00;99.90;;;;;;5035225;28;20493;-38
2021/10/02 03:22:53;;;;;;;4.63;4.33;;;14.00;99.90;;;;;;5029040;28;20444;-38
2021/10/02 03:25:22;;;;;;;5.43;5.00;;;14.00;99.90;;;;;;5028385;28;20457;-39
2021/10/02 03:27:49;;;;;;;5.53;4.90;;;14.00;99.90;;;;;;5027838;28;20437;-39
2021/10/02 03:30:15;;;;;;;5.37;4.97;;;14.00;99.90;;;;;;5028407;28;20432;-38
2021/10/02 03:32:43;;;;;;;5.23;4.80;;;14.00;99.90;;;;;;5028043;28;20634;-38
2021/10/02 03:35:09;;;;;;;7.20;4.87;;;14.00;99.90;;;;;;5027994;28;21291;-38
2021/10/02 03:37:35;;;;;;;4.87;4.57;;;14.10;99.90;;;;;;5022922;28;20472;-38
2021/10/02 03:40:05;;;;;;;4.93;4.53;;;14.10;99.90;;;;;;5023643;28;20880;-39
2021/10/02 03:42:41;;;;;;;4.67;4.27;;;14.10;99.90;;;;;;5027637;28;20483;-38
2021/10/02 03:45:07;;;;;;;5.10;4.70;;;14.10;99.90;;;;;;5027964;28;20846;-38
2021/10/02 03:47:33;;;;;;;5.70;5.30;;;14.10;99.90;;;;;;5026818;28;20417;-38
2021/10/02 03:49:59;;;;;;;5.03;4.63;;;14.10;99.90;;;;;;5028021;28;20463;-39
2021/10/02 03:52:24;;;;;;;5.60;5.10;;;14.10;99.90;;;;;;5022820;28;20265;-39
2021/10/02 03:54:50;;;;;;;5.00;4.70;;;14.10;99.90;;;;;;5020590;28;20206;-38
2021/10/02 03:57:16;;;;;;;5.07;4.67;;;14.10;99.90;;;;;;5027700;28;20221;-38
2021/10/02 03:59:41;;;;;;;5.83;5.23;;;14.10;99.90;;;;;;5027831;28;20857;-38
2021/10/02 04:02:07;;;;;;;5.63;5.23;;;14.20;99.90;;;;;;5027470;28;20246;-39
2021/10/02 04:04:33;;;;;;;5.50;5.10;;;14.10;99.90;;;;;;5027111;28;20307;-39
2021/10/02 04:06:59;;;;;;;5.67;5.13;;;14.10;99.90;;;;;;5025093;28;20269;-38
2021/10/02 04:09:26;;;;;;;5.10;4.60;;;14.10;99.90;;;;;;5018378;28;20613;-38
2021/10/02 04:11:52;;;;;;;5.20;4.80;;;14.10;99.90;;;;;;5026025;28;20190;-39
2021/10/02 04:14:19;;;;;;;5.10;4.70;;;14.10;99.90;;;;;;5027199;28;20428;-38
2021/10/02 04:16:45;;;;;;;6.83;6.23;;;14.00;99.90;;;;;;5027471;28;20520;-38
2021/10/02 04:19:11;;;;;;;5.57;5.17;;;14.10;99.90;;;;;;5027397;28;20524;-38
2021/10/02 04:21:37;;;;;;;4.53;4.23;;;14.10;99.90;;;;;;5044557;28;20477;-38
2021/10/02 04:24:03;;;;;;;5.80;5.30;;;14.10;99.90;;;;;;5021638;28;20667;-38
2021/10/02 04:26:30;;;;;;;5.63;5.23;;;14.00;99.90;;;;;;5027014;28;20490;-39
2021/10/02 04:28:56;;;;;;;5.57;5.07;;;14.00;99.90;;;;;;5027280;28;20567;-38
2021/10/02 04:31:21;;;;;;;6.00;5.50;;;14.00;99.90;;;;;;5027319;28;20441;-38
2021/10/02 04:33:47;;;;;;;6.00;5.50;;;14.00;99.90;;;;;;5025233;28;20193;-38
2021/10/02 04:36:14;;;;;;;5.73;5.23;;;14.00;99.90;;;;;;5026964;28;20205;-38
2021/10/02 04:38:40;;;;;;;6.20;5.70;;;13.90;99.90;;;;;;5017954;28;20217;-38
2021/10/02 04:41:06;;;;;;;5.97;5.57;;;13.90;99.90;;;;;;5027039;28;20793;-38
2021/10/02 04:43:34;;;;;;;5.50;5.10;;;13.90;99.90;;;;;;5026480;28;20463;-39
2021/10/02 04:46:01;;;;;;;5.37;4.97;;;14.00;99.90;;;;;;5025369;28;20193;-38
2021/10/02 04:48:27;;;;;;;5.00;4.60;;;14.00;99.90;;;;;;5026559;28;20466;-38
2021/10/02 04:50:53;;;;;;;5.80;5.30;;;14.00;99.90;;;;;;5026965;28;20421;-38
2021/10/02 04:53:19;;;;;;;5.93;5.43;;;14.00;99.90;;;;;;5016541;28;20438;-38
2021/10/02 04:55:44;;;;;;;5.30;4.83;;;14.00;99.90;;;;;;5025502;28;20567;-42
2021/10/02 04:58:10;;;;;;;7.23;5.53;;;14.00;99.90;;;;;;5026698;28;20229;-38
2021/10/02 05:00:36;;;;;;;6.00;5.10;;;14.00;99.90;;;;;;5026324;28;20194;-38
2021/10/02 05:03:02;;;;;;;5.17;4.70;;;14.00;99.90;;;;;;5025791;28;20182;-38
2021/10/02 05:05:28;;;;;;;6.03;5.53;;;14.00;99.90;;;;;;5026329;28;20182;-38
2021/10/02 05:07:54;;;;;;;5.07;4.67;;;14.00;99.90;;;;;;5020727;28;20723;-38
2021/10/02 05:10:20;;;;;;;4.37;4.00;;;14.00;99.90;;;;;;5014702;28;20920;-38
2021/10/02 05:12:45;;;;;;;5.10;4.70;;;14.00;99.90;;;;;;5025571;28;20889;-38
2021/10/02 05:15:11;;;;;;;4.47;4.07;;;14.00;99.90;;;;;;5026051;28;20192;-38
2021/10/02 05:17:37;;;;;;;5.27;4.37;;;14.00;99.90;;;;;;5026425;28;20661;-38
2021/10/02 05:20:04;;;;;;;4.60;4.30;;;14.10;99.90;;;;;;5029703;28;20431;-38
2021/10/02 05:22:30;;;;;;;4.20;3.90;;;14.00;99.90;;;;;;5041800;28;20557;-38
2021/10/02 05:24:56;;;;;;;4.37;3.97;;;14.00;99.90;;;;;;5015712;28;20422;-38
2021/10/02 05:27:21;;;;;;;4.53;3.90;;;14.00;99.90;;;;;;5025690;28;20621;-38
2021/10/02 05:29:48;;;;;;;4.30;3.90;;;14.00;99.90;;;;;;5026211;28;20204;-38
2021/10/02 05:32:15;;;;;;;4.33;4.03;;;14.10;99.90;;;;;;5026374;28;20198;-38
2021/10/02 05:34:42;;;;;;;4.37;3.97;;;14.00;99.90;;;;;;5025273;28;20516;-38
2021/10/02 05:37:08;;;;;;;4.27;3.93;;;14.00;99.90;;;;;;5025889;28;20877;-38
2021/10/02 05:39:34;;;;;;;4.27;3.90;;;14.10;99.90;;;;;;5014064;28;20858;-38
2021/10/02 05:42:00;;;;;;;4.77;4.37;;;14.00;99.90;;;;;;5020506;28;20416;-38
2021/10/02 05:44:26;;;;;;;6.03;3.97;;;14.00;99.90;;;;;;5025502;28;20492;-38
2021/10/02 05:46:52;;;;;;;4.77;4.20;;;14.00;99.90;;;;;;5024233;28;20191;-40
2021/10/02 05:49:18;;;;;;;4.70;4.30;;;13.90;99.90;;;;;;5026099;28;20417;-38
2021/10/02 05:51:43;;;;;;;4.20;3.90;;;14.00;99.90;;;;;;5025673;28;20186;-38
2021/10/02 05:54:09;;;;;;;4.47;4.10;;;14.00;99.90;;;;;;5015084;28;20214;-38
2021/10/02 05:56:36;;;;;;;4.60;4.20;;;14.00;99.90;;;;;;5025256;28;20202;-38
2021/10/02 05:59:03;;;;;;;4.80;4.40;;;14.10;99.90;;;;;;5025885;28;21025;-39
2021/10/02 06:01:29;;;;;;;3.90;3.60;;;14.10;99.90;;;;;;5025722;28;20428;-38
2021/10/02 06:03:55;;;;;;;4.60;4.20;;;14.10;99.90;;;;;;5024581;28;20428;-38
2021/10/02 06:06:20;;;;;;;6.00;4.50;;;14.10;99.90;;;;;;5025712;28;20428;-38
2021/10/02 06:08:46;;;;;;;5.20;4.80;;;14.20;99.90;;;;;;5019631;28;20839;-38
2021/10/02 06:11:12;;;;;;;5.27;4.87;;;14.20;99.90;;;;;;5020933;28;20248;-38
2021/10/02 06:13:37;;;;;;;5.70;5.20;;;14.10;99.90;;;;;;5024795;28;20273;-42
2021/10/02 06:16:04;;;;;;;5.37;4.97;;;14.10;99.90;;;;;;5025522;28;20194;-38
2021/10/02 06:18:30;;;;;;;4.77;4.37;;;14.00;99.90;;;;;;5024940;28;20305;-37
2021/10/02 06:20:56;;;;;;;4.87;4.50;;;13.90;99.90;;;;;;5036599;28;20432;-38
2021/10/02 06:23:22;;;;;;;4.50;4.10;;;14.00;99.90;;;;;;5033276;28;20452;-37
2021/10/02 06:25:49;;;;;;;4.87;4.33;;;13.90;99.90;;;;;;5018557;28;20531;-38
2021/10/02 06:28:15;;;;;;;4.77;4.30;;;13.90;99.90;;;;;;5025326;28;20433;-38
2021/10/02 06:30:41;;;;;;;4.40;4.00;;;13.90;99.90;;;;;;5025228;28;20891;-37
2021/10/02 06:33:06;;;;;;;5.27;4.87;;;13.90;99.90;;;;;;5024330;28;20425;-38
2021/10/02 06:35:32;;;;;;;4.40;4.10;;;13.90;99.90;;;;;;5025783;28;20194;-38
2021/10/02 06:37:58;;;;;;;4.67;4.37;;;13.90;99.90;;;;;;5023231;28;20214;-38
2021/10/02 06:40:25;;;;;;;3.57;3.30;;;14.00;99.90;;;;;;5020108;28;20561;-38
2021/10/02 06:42:51;;;;;;;4.33;4.03;;;14.00;99.90;;;;;;5028584;28;20293;-38
2021/10/02 06:45:17;;;;;;;4.17;3.87;;;14.00;99.90;;;;;;5029145;28;20453;-42
2021/10/02 06:47:43;;;;;;;4.40;4.10;;;14.00;99.90;;;;;;5028785;28;20467;-38
2021/10/02 06:50:09;;;;;;;3.50;3.30;;;14.00;99.90;;;;;;5028896;28;20494;-38
2021/10/02 06:52:34;;;;;;;3.63;3.43;;;14.00;99.90;;;;;;5028998;28;20183;-38
2021/10/02 06:55:00;;;;;;;4.10;3.60;;;14.00;99.90;;;;;;5022195;28;20432;-39
2021/10/02 06:57:26;;;;;;;3.40;3.20;;;14.10;99.90;;;;;;5028912;28;20765;-39
2021/10/02 06:59:52;;;;;;;3.53;3.27;;;14.10;99.90;;;;;;5029038;28;20183;-38
2021/10/02 07:02:18;;;;;;;3.70;3.40;;;14.10;99.90;;;;;;5028934;28;20912;-40
2021/10/02 07:04:45;;;;;;;4.33;3.93;;;14.20;99.90;;;;;;5028141;28;20236;-38
2021/10/02 07:07:11;;;;;;;3.93;3.63;;;14.10;99.90;;;;;;5028738;28;20684;-38
2021/10/02 07:09:37;;;;;;;4.30;4.00;;;14.20;99.90;;;;;;5016773;28;20444;-38
2021/10/02 07:12:03;;;;;;;3.70;3.40;;;14.10;99.90;;;;;;5027266;28;20417;-38
2021/10/02 07:14:29;;;;;;;3.50;3.20;;;14.10;99.90;;;;;;5028039;28;20225;-39
2021/10/02 07:16:55;;;;;;;3.80;2.93;;;14.10;99.90;;;;;;5028104;28;20429;-38
2021/10/02 07:19:21;;;;;;;3.10;2.90;;;14.20;99.90;;;;;;5028997;28;20269;-39
2021/10/02 07:21:47;;;;;;;3.50;2.70;;;14.20;99.90;;;;;;5046573;28;20244;-39
2021/10/02 07:24:15;;;;;;;2.53;2.33;;;14.10;99.90;;;;;;5032416;28;20426;-38
2021/10/02 07:26:43;;;;;;;3.07;2.80;;;14.10;99.90;;;;;;5026295;28;20611;-38
2021/10/02 07:29:10;;;;;;;2.60;2.40;;;14.20;99.90;;;;;;5028799;28;20429;-38
2021/10/02 07:31:35;;;;;;;2.70;2.50;;;14.20;99.90;;;;;;5028050;28;20425;-39
2021/10/02 07:34:01;;;;;;;2.23;2.03;;;14.20;99.90;;;;;;5027637;28;20429;-38
2021/10/02 07:36:28;;;;;;;2.30;2.20;;;14.30;99.90;;;;;;5027908;28;20190;-39
2021/10/02 07:38:55;;;;;;;2.40;2.20;;;14.20;99.90;;;;;;5023794;28;20753;-38
2021/10/02 07:41:22;;;;;;;2.60;2.40;;;14.20;99.90;;;;;;5020484;28;20417;-38
2021/10/02 07:43:56;;;;;;;2.40;2.20;;;14.30;99.90;;;;;;5027682;28;20409;-40
2021/10/02 07:46:24;;;;;;;2.70;2.43;;;14.30;99.90;;;;;;5015221;28;20979;-38
2021/10/02 07:48:54;;;;;;;2.43;2.17;;;14.30;99.90;;;;;;5027922;28;20428;-38
2021/10/02 07:51:21;;;;;;;2.20;2.00;;;14.30;99.90;;;;;;5027978;28;20432;-41
2021/10/02 07:53:49;;;;;;;2.73;2.53;;;14.30;99.90;;;;;;5024419;28;20421;-39
2021/10/02 07:56:15;;;;;;;2.50;2.07;;;14.30;99.90;;;;;;5019185;28;20524;-38
2021/10/02 07:58:42;;;;;;;1.70;1.60;;;14.30;99.90;;;;;;5027191;28;20483;-38
2021/10/02 08:01:08;;;;;;;5.80;2.03;;;14.40;99.90;;;;;;5028088;28;20421;-41
2021/10/02 08:03:35;;;;;;;2.77;1.73;;;14.40;99.90;;;;;;5026811;28;20444;-38
2021/10/02 08:06:01;;;;;;;2.03;1.60;;;14.40;99.90;;;;;;5027729;28;20492;-38
2021/10/02 08:08:27;;;;;;;1.73;1.63;;;14.40;99.90;;;;;;5027307;28;20430;-38
2021/10/02 08:10:53;;;;;;;1.93;1.50;;;14.50;99.90;;;;;;5020862;28;20443;-38
2021/10/02 08:13:19;;;;;;;1.30;1.20;;;14.40;99.90;;;;;;5026572;28;20279;-39
2021/10/02 08:15:56;;;;;;;1.80;1.70;;;14.50;99.90;;;;;;5027779;28;20193;-38
2021/10/02 08:18:24;;;;;;;1.60;1.50;;;14.50;99.90;;;;;;5027037;28;20995;-38
2021/10/02 08:20:53;;;;;;;1.70;1.60;;;14.50;99.90;;;;;;5027487;28;20449;-39
2021/10/02 08:23:22;;;;;;;1.60;1.33;;;14.60;99.90;;;;;;5044621;28;20424;-38
2021/10/02 08:25:50;;;;;;;1.53;1.43;;;14.60;99.90;;;;;;5019698;28;20428;-38
2021/10/02 08:28:16;;;;;;;2.37;1.50;;;14.70;99.90;;;;;;5025861;28;20448;-40
2021/10/02 08:30:45;;;;;;;2.57;1.30;;;14.80;99.90;;;;;;5027054;28;20433;-38
2021/10/02 08:33:12;;;;;;;1.70;1.40;;;15.00;99.90;;;;;;5026233;28;20425;-40
2021/10/02 08:35:39;;;;;;;1.77;1.67;;;15.10;99.90;;;;;;5026745;28;20425;-39
2021/10/02 08:38:06;;;;;;;1.60;1.30;;;15.20;99.90;;;;;;5026567;28;20818;-38
2021/10/02 08:40:32;;;;;;;1.53;1.43;;;15.30;99.90;;;;;;5016221;28;20784;-38
2021/10/02 08:42:58;;;;;;;1.90;1.30;;;15.30;99.90;;;;;;5025939;28;20421;-38
2021/10/02 08:45:28;;;;;;;1.83;1.53;;;15.30;99.90;;;;;;5026945;28;20417;-40
2021/10/02 08:47:56;;;;;;;1.60;1.50;;;15.20;99.90;;;;;;5025372;28;20413;-38
2021/10/02 08:50:22;;;;;;;2.57;1.40;;;15.30;99.90;;;;;;5026579;28;20428;-38
2021/10/02 08:52:48;;;;;;;1.30;1.20;;;15.20;99.90;;;;;;5025973;28;20417;-39
2021/10/02 08:55:14;;;;;;;2.07;1.60;;;15.20;99.90;;;;;;5016596;28;20513;-38
2021/10/02 08:57:42;;;;;;;1.87;1.73;;;15.20;99.90;;;;;;5026491;28;20595;-38
2021/10/02 09:00:12;;;;;;;2.50;1.73;;;15.30;99.90;;;;;;5026569;28;20508;-38
2021/10/02 09:02:38;;;;;;;1.60;1.50;;;15.30;99.90;;;;;;5025572;28;20426;-40
2021/10/02 09:05:07;;;;;;;1.53;1.40;;;15.40;99.90;;;;;;5026034;28;20503;-39
2021/10/02 09:07:34;;;;;;;1.50;1.40;;;15.40;99.90;;;;;;5026719;28;20429;-38
2021/10/02 09:10:02;;;;;;;1.90;1.80;;;15.40;99.90;;;;;;5018453;28;20524;-38
2021/10/02 09:12:29;;;;;;;1.70;1.60;;;15.40;99.90;;;;;;5024753;28;20432;-38
2021/10/02 09:14:56;;;;;;;1.77;1.37;;;15.50;99.90;;;;;;5026081;28;20536;-38
2021/10/02 09:17:22;;;;;;;1.60;1.50;;;15.50;99.90;;;;;;5026297;28;20468;-38
2021/10/02 09:19:48;;;;;;;2.37;1.33;;;15.50;99.90;;;;;;5026238;28;20493;-38
2021/10/02 09:22:18;;;;;;;1.80;1.70;;;15.50;99.90;;;;;;5046152;28;20412;-38
2021/10/02 09:24:46;;;;;;;1.93;1.50;;;15.50;99.90;;;;;;5035478;28;20500;-38
2021/10/02 09:27:24;;;;;;;4.90;1.93;;;15.50;99.90;;;;;;5020938;28;20504;-38
2021/10/02 09:29:58;;;;;;;1.97;1.77;;;15.50;99.90;;;;;;5024094;28;20448;-39
2021/10/02 09:32:36;;;;;;;1.77;1.60;;;15.60;99.90;;;;;;5025681;28;20421;-39
2021/10/02 09:35:08;;;;;;;2.63;1.80;;;15.60;99.90;;;;;;5025522;28;20432;-38
2021/10/02 09:37:36;;;;;;;1.73;1.63;;;15.60;99.90;;;;;;5025740;28;20535;-38
2021/10/02 09:40:17;;;;;;;1.73;1.60;;;15.60;99.90;;;;;;5018706;28;20430;-38
2021/10/02 09:42:52;;;;;;;3.93;2.10;;;15.50;99.90;;;;;;5021450;28;20501;-38
2021/10/02 09:45:38;;;;;;;2.30;2.10;;;15.50;99.90;;;;;;5025917;28;20429;-38
2021/10/02 09:48:07;;;;;;;2.43;2.23;;;15.40;99.90;;;;;;5024028;28;20984;-38
2021/10/02 09:50:37;;;;;;;2.40;2.00;;;15.40;99.90;;;;;;5025965;28;20538;-38
2021/10/02 09:53:08;;;;;;;2.17;2.07;;;15.50;99.90;;;;;;5024924;28;20497;-38
2021/10/02 09:55:39;;;;;;;2.00;1.90;;;15.50;99.90;;;;;;5017507;28;20429;-38
2021/10/02 09:58:13;;;;;;;3.73;2.40;;;15.50;99.90;;;;;;5021098;28;20487;-38
2021/10/02 10:00:42;;;;;;;2.50;2.00;;;15.50;99.90;;;;;;5023270;28;20429;-38
2021/10/02 10:03:13;;;;;;;2.13;1.93;;;15.50;99.90;;;;;;5025007;28;20408;-38
2021/10/02 10:05:50;;;;;;;2.20;2.00;;;15.50;99.90;;;;;;5025225;28;20563;-38
2021/10/02 10:08:26;;;;;;;2.03;1.93;;;15.60;99.90;;;;;;5024293;28;20511;-38
2021/10/02 10:11:04;;;;;;;2.50;2.30;;;15.60;99.90;;;;;;5017766;28;20722;-38
2021/10/02 10:13:30;;;;;;;2.50;2.20;;;15.60;99.90;;;;;;5024678;28;20436;-38
2021/10/02 10:15:57;;;;;;;2.07;1.97;;;15.70;99.90;;;;;;5029461;28;20781;-39
2021/10/02 10:18:30;;;;;;;3.87;2.30;;;15.60;99.90;;;;;;5028127;28;20240;-39
2021/10/02 10:20:58;;;;;;;2.33;2.13;;;15.60;99.90;;;;;;5040665;28;20807;-40
2021/10/02 10:23:29;;;;;;;2.60;2.13;;;15.70;99.90;;;;;;5048926;28;20782;-38
2021/10/02 10:26:00;;;;;;;2.70;2.50;;;15.70;99.90;;;;;;5030414;28;20423;-38
2021/10/02 10:28:29;;;;;;;2.73;2.53;;;15.70;99.90;;;;;;5029266;28;20448;-38
2021/10/02 10:31:13;;;;;;;3.77;2.70;;;15.80;99.90;;;;;;5029560;28;20795;-39
2021/10/02 10:33:40;;;;;;;1.93;1.83;;;15.80;99.90;;;;;;5029188;28;20421;-45
2021/10/02 10:36:07;;;;;;;1.93;1.83;;;15.80;99.90;;;;;;5029044;28;20437;-39
2021/10/02 10:38:39;;;;;;;2.07;1.90;;;15.80;99.90;;;;;;5029507;28;20488;-38
2021/10/02 10:41:05;;;;;;;1.90;1.77;;;15.80;99.90;;;;;;5017547;28;21120;-38
2021/10/02 10:43:33;;;;;;;2.30;2.10;;;15.80;99.90;;;;;;5027424;28;20508;-38
2021/10/02 10:46:07;;;;;;;2.33;2.13;;;15.90;99.90;;;;;;5027550;28;20926;-38
2021/10/02 10:48:34;;;;;;;2.30;2.10;;;15.80;99.90;;;;;;5029353;28;20424;-38
2021/10/02 10:51:21;;;;;;;1.70;1.60;;;15.80;99.90;;;;;;5028757;28;20420;-38
2021/10/02 10:53:49;;;;;;;3.07;2.70;;;15.80;99.90;;;;;;5028310;28;20444;-40
2021/10/02 10:56:34;;;;;;;2.63;2.43;;;15.90;99.90;;;;;;5017204;28;20512;-38
2021/10/02 10:59:00;;;;;;;2.40;2.17;;;15.90;99.90;;;;;;5028774;28;20463;-38
2021/10/02 11:01:40;;;;;;;2.40;2.20;;;16.00;99.90;;;;;;5028538;28;20424;-38
2021/10/02 11:04:26;;;;;;;2.00;1.80;;;16.00;99.90;;;;;;5027634;28;20421;-38
2021/10/02 11:06:55;;;;;;;3.50;2.30;;;15.90;99.90;;;;;;5028659;28;20424;-38
2021/10/02 11:09:41;;;;;;;4.43;1.90;;;15.90;99.90;;;;;;5028995;28;20429;-38
2021/10/02 11:12:17;;;;;;;2.40;1.83;;;15.90;99.90;;;;;;5018455;28;20454;-38
2021/10/02 11:14:51;;;;;;;2.27;2.00;;;15.90;99.90;;;;;;5022395;28;20931;-39
2021/10/02 11:17:31;;;;;;;2.17;2.03;;;16.00;99.90;;;;;;5028495;28;20777;-40
2021/10/02 11:19:58;;;;;;;2.27;1.93;;;16.00;99.90;;;;;;5028396;28;20417;-38
2021/10/02 11:23:04;;;;;;;2.50;1.97;;;16.10;99.90;;;;;;5037815;28;20423;-38
2021/10/02 11:25:30;;;;;;;1.70;1.60;;;16.20;99.90;;;;;;5039013;28;20784;-39
2021/10/02 11:28:25;;;;;;;1.73;1.60;;;16.30;99.90;;;;;;5023033;28;20421;-40
2021/10/02 11:30:53;;;;;;;2.20;1.53;;;16.30;99.90;;;;;;5021640;28;20417;-38
2021/10/02 11:33:58;;;;;;;1.70;1.60;;;16.30;99.90;;;;;;5014450;28;20422;-38
2021/10/02 11:39:25;;;;;;;3.63;1.57;;;16.40;99.90;;;;;;5023440;28;20895;-39
2021/10/02 11:42:11;;;;;;;2.27;1.80;;;16.40;99.90;;;;;;5018682;28;20437;-38
2021/10/02 11:44:49;;;;;;;2.10;2.00;;;16.40;99.90;;;;;;5027056;28;20419;-38
2021/10/02 11:47:34;;;;;;;1.97;1.70;;;16.50;99.90;;;;;;5025278;28;20956;-42
2021/10/02 11:50:12;;;;;;;2.30;2.13;;;16.60;99.90;;;;;;5027543;28;20514;-40
2021/10/02 11:52:57;;;;;;;2.20;2.00;;;16.70;99.90;;;;;;5027873;28;20406;-39
2021/10/02 11:55:35;;;;;;;1.90;1.80;;;16.70;99.90;;;;;;5025594;28;20413;-39
2021/10/02 11:58:21;;;;;;;1.80;1.70;;;16.70;99.90;;;;;;5021959;28;20457;-38
2021/10/02 12:00:51;;;;;;;1.93;1.80;;;16.70;99.90;;;;;;5027362;28;20891;-39
2021/10/02 12:03:29;;;;;;;3.80;1.93;;;16.70;99.90;;;;;;5026932;28;20539;-39
2021/10/02 12:05:57;;;;;;;5.13;1.60;;;16.80;99.90;;;;;;5027986;28;20420;-42
2021/10/02 12:08:23;;;;;;;2.00;1.90;;;16.80;99.90;;;;;;5027543;28;20420;-39
2021/10/02 12:11:00;;;;;;;3.27;1.43;;;16.80;99.90;;;;;;5022115;28;20449;-39
2021/10/02 12:13:52;;;;;;;1.70;1.60;;;16.80;99.90;;;;;;5027699;28;20413;-38
2021/10/02 12:16:33;;;;;;;1.50;1.37;;;16.80;99.90;;;;;;5027438;28;20475;-38
2021/10/02 12:19:10;;;;;;;1.17;1.07;;;16.80;99.90;;;;;;5027613;28;20465;-38
2021/10/02 12:21:42;;;;;;;1.73;1.63;;;16.90;99.90;;;;;;5043621;28;20420;-38
2021/10/02 12:24:13;;;;;;;1.90;1.43;;;16.80;99.90;;;;;;5046763;28;20435;-38
2021/10/02 12:26:58;;;;;;;2.83;1.63;;;16.80;99.90;;;;;;5027695;28;20463;-38
2021/10/02 12:29:26;;;;;;;1.47;1.37;;;16.70;99.90;;;;;;5024862;28;20443;-39
2021/10/02 12:31:58;;;;;;;2.40;1.20;;;16.70;99.90;;;;;;5027156;28;20508;-38
2021/10/02 12:34:31;;;;;;;1.17;1.07;;;16.70;99.90;;;;;;5026085;28;21034;-40
2021/10/02 12:37:05;;;;;;;1.87;1.23;;;16.70;99.90;;;;;;5026548;28;20433;-42
2021/10/02 12:39:56;;;;;;;1.63;1.23;;;16.80;99.90;;;;;;5027075;28;20999;-38
2021/10/02 12:42:36;;;;;;;1.27;1.17;;;16.80;99.90;;;;;;5014801;28;20729;-44
2021/10/02 12:45:13;;;;;;;1.80;1.60;;;16.80;99.90;;;;;;5026762;28;20496;-40
2021/10/02 12:47:44;;;;;;;1.40;1.10;;;16.70;99.90;;;;;;5025301;28;20413;-39
2021/10/02 12:50:13;;;;;;;2.40;1.20;;;16.70;99.90;;;;;;5026520;28;20417;-38
2021/10/02 12:52:39;;;;;;;1.10;1.00;;;16.70;99.90;;;;;;5026531;28;20939;-39
2021/10/02 12:55:15;;;;;;;1.40;1.30;;;16.70;99.90;;;;;;5026315;28;20449;-42
2021/10/02 12:57:42;;;;;;;2.27;1.20;;;16.70;99.90;;;;;;5019219;28;20638;-39
2021/10/02 13:00:11;;;;;;;1.80;1.23;;;16.70;99.90;;;;;;5026703;28;20760;-40
2021/10/02 13:02:57;;;;;;;1.27;1.00;;;16.70;99.90;;;;;;5014025;28;20417;-39
2021/10/02 13:05:28;;;;;;;1.30;1.20;;;16.70;99.90;;;;;;5026983;28;20425;-38
2021/10/02 13:07:55;;;;;;;2.27;1.50;;;16.70;99.90;;;;;;5025353;28;20494;-38
2021/10/02 13:10:26;;;;;;;2.27;1.30;;;16.80;99.90;;;;;;5026546;28;20483;-39
2021/10/02 13:13:07;;;;;;;1.30;1.20;;;16.90;99.90;;;;;;5016650;28;20435;-38
2021/10/02 13:15:38;;;;;;;1.20;1.10;;;16.80;99.90;;;;;;5025604;28;20515;-38
2021/10/02 13:18:09;;;;;;;1.20;1.10;;;16.90;99.90;;;;;;5026323;28;20469;-39
2021/10/02 13:20:41;;;;;;;2.93;1.17;;;16.90;99.90;;;;;;5033640;28;20431;-38
2021/10/02 13:23:37;;;;;;;1.60;1.27;;;16.90;99.90;;;;;;5045641;28;20786;-39
2021/10/02 13:26:11;;;;;;;1.50;1.40;;;16.90;99.90;;;;;;5036850;28;20522;-38
2021/10/02 13:28:49;;;;;;;2.13;1.23;;;16.90;99.90;;;;;;5018555;28;20409;-38
2021/10/02 13:31:14;;;;;;;1.63;1.53;;;16.90;99.90;;;;;;5026252;28;20435;-38
2021/10/02 13:33:42;;;;;;;1.50;1.40;;;16.90;99.90;;;;;;5025909;28;20421;-38
2021/10/02 13:36:27;;;;;;;1.40;1.30;;;16.80;99.90;;;;;;5025768;28;20198;-40
2021/10/02 13:38:54;;;;;;;1.63;1.53;;;16.80;99.90;;;;;;5026102;28;20464;-39
2021/10/02 13:41:20;;;;;;;1.53;1.43;;;16.80;99.90;;;;;;5023126;28;21542;-41
2021/10/02 13:44:00;;;;;;;2.20;1.73;;;16.80;99.90;;;;;;5017958;28;20455;-38
2021/10/02 13:46:32;;;;;;;2.07;1.37;;;16.80;99.90;;;;;;5022237;28;20424;-39
2021/10/02 13:49:00;;;;;;;2.50;1.70;;;16.80;99.90;;;;;;5025488;28;20879;-38
2021/10/02 13:51:26;;;;;;;1.43;1.33;;;16.80;99.90;;;;;;5025842;28;20773;-39
2021/10/02 13:53:53;;;;;;;1.70;1.60;;;16.80;99.90;;;;;;5025386;28;20926;-38
2021/10/02 13:56:18;;;;;;;1.50;1.40;;;16.70;99.90;;;;;;5023141;28;20417;-39
2021/10/02 13:58:45;;;;;;;1.80;1.70;;;16.70;99.90;;;;;;5020983;28;20580;-38